Aviation Digital Data Service (ADDS)

Output produced by METARs form (2054 UTC 29 May 2017)
found at http://www.aviationweather.gov/adds/metars/
 
TGPY 291600Z 2918/3018 10018KT 9999 SCT018 
     BECMG 3000/3002 09013KT 
     PROB40 
     TEMPO 3006/3012 5000 SHRA FEW014CB BKN016 BKN035 
     BECMG 3012/3014 10018KT FEW014CB SCT018 BKN035